Timeline UpdatesTrip UpdatesNews PostsPvt Posts♥♥Travel TipsAdmin PostsConv PostsFollowed PostsChat RequestsBlog PostsPNR Posts

Disclaimer
Search
 
 
Tue Oct 21, 2014 06:00:54 ISTHomeTrainsΣChainsAtlasPNRForumGalleryNewsFAQTripsMembersLoginFeedback
No Recent News for this Train
Other Trains in the News **new
Latest...
Mangalore Central departure at 5AM- speede dup by 10 mins
Sat Aug 30, 2014 (09:06PM)
⇐ Return Journey: Train# 16650

16649/Parashuram Express

Time-Table HAS CHANGED.
Sep 02 2014 (12:30AM)
Change Departure Station:
Change Arrival Station:
Post a Train Travel TipPost a Train Travel Tip **new
Post a Comment/Question/Picture/VideoPost a Comment/Question/Picture/Video
Pantry/Catering
✓ Pantry Car Avbl
✓ Catering Avbl
RSA - Rake Sharing
Rake/Coach Composition
Loco SLR GS GS GS GS GS GS GS GS GS PC D1 C1 C2 F1 GS GS GS GS SLR
Loco
MAQ-SRR :ERS WDM 3A/ED WDM 3A/D SRR-NCJ: ED/RPM WAP 4
News    PNR    Forum    Time-Table    Availability    Fare Chart    Map    Arr/Dep History    Trips    Gallery    ΣChains    X/O    Timeline    
Travel Time: 13h 35m    45 halts    Distance: 632 km    Avg Speed: 46 km/hr
Type: Mail/Express
Zone: SR/Southern
Departs @ 05:00 (Avg 2m late)
Platform# 1
SMTWTFS
Mangalore Central/MAQ 
Arrives @ 18:35 (Avg 42m late)
Platform# 5
SMTWTFS
Trivandrum Central/TVC 

45 halts. 120 intermediate Stations between Mangalore Central and Trivandrum Central

Show ALL intermediate Stations  Show Old Time-Table

#TrkCodeStation NameX/OArrivesAvgDepartsAvgHaltPFDay#KmSpeedElevZoneAddress
1%==%MAQMangalore Central (4)»  -04:50 05:00+2110.07014mSRMangalore 575001, Karnataka
2%==%KGQKasaragod (3)  05:35 05:39+905:36 05:41+91 2m--145.77318mSRTel: 04994 220800, Kerala
3%==%KZEKanhangad (3)  05:56 06:00+905:57 06:02+111 2m--168.85615mSRKanhangad, Kerala
4%==%NLENileshwar (2)X  06:07 06:12+1206:08 06:13+121m--178.16312mSRNileswaram, Kerala
5%==%PAYPayyanur (3)  06:28 06:32+1106:29 06:34+121 2m--198.1640mSRKannur District, Kerala
6%==%PAZPayangadi (2)  06:40 06:45+1106:41 06:46+111m21109.86412mSRKannur District, Kerala
7%==%KPQKannapuram (2)X  06:48 06:53+1206:49 06:54+121m21117.3339mSRKannur District, Kerala
8%==%CANKannur Main (4)  07:15 07:20+207:20 07:25+105m31131.86914mSRKannur Tel: 0497 2705555, Kerala
9%==%TLYThalassery (2)  07:39 07:43+1107:40 07:45+111 2m--1152.4629mSRKannur, Kerala
10%==%MAHEMahe (2)  07:49 07:54+1207:50 07:55+121m--1161.76416mSRMahe, Puducherry
11%==%BDJVadakara (2)X  08:02 08:07+1108:03 08:09+111 2m11174.67711mSRCalicut / Station Ph No : 0496-2524254, Kerala
12%==%QLDKoyilandy (3)X  08:19 08:26+1408:20 08:27+141m--1196.54411mSRQuilandi, Kerala
13%==%CLTKozhikode Main (4)X  09:00+309:05+75m31220.84311mSRCalicut Tel: 0495 2701234, Kerala
14%==%FKFerok (2)  09:19+909:20+101m--1230.85119mSRFeroke, Kerala
15%==%VLIVallikunnu (2)  09:32-09:33-1m--1241.04313mSRVallikkunnu, Kerala
16%==%PGIParappangadi (2)  09:40+1109:41+121m--1246.06119mSRParappanangadi, Kerala
17%==%TATanur (3)X  09:49+1309:50+131m--1254.16011mSRMalappuram, Kerala
18%==%TIRTirur (3)  09:59 09:58+1310:00+141 2m21262.1509mSRTel: 0494 2422240, Kerala
19%==%KTUKuttippuram (2)  10:19 10:18+1110:20+111 2m21277.16517mSRKuttippuram, Kerala
20%==%PTBPattambi (2)X  10:34 10:37+1210:35 10:38+121m21295.62221mSRPattambi, Kerala
21%==%SRRShoranur Junction (7)X11:10+011:15 11:20+175 10m61307.15226mSRShoranur ph.no 0466-2222913, Kerala
22/==/WKIWadakkanchery (2)X  11:34 11:39+3211:35 11:40+321m11323.76640mSRWadackanchery, Kerala
23/==/TCRThrissur (4)X  11:52 11:55+3511:54 12:00+332 5m11340.1626mSRThrissur Tel: 0487 2423150, Kerala
24/==/PUKPudukkad (2)  12:08 12:13+3612:09 12:14+361m--1353.66811mSRPudukad, Kerala
25/==/IJKIrinjalakkuda (2)  12:19 12:23+3812:20 12:24+381m21363.85518mSRKalletumkara, Kerala
26/==/CKIChalakkudy (3)X  12:28 12:31+3812:29 12:32+381m11370.3659mSRPh: 0480- 2701368, Kerala
27/==/DINRDivine Nagar (2)  12:33 12:34+2312:34 12:35+231m11372.58716mSRThrissur, Kerala
28/==/AFKAngamaly for Kalady (3)  12:44+4512:45+461m21385.52816mSRPhone: 0484-2452340, Kerala
29/==/AWYAluva (3)X  13:00 13:05+3813:02 13:07+382m11394.73112mSRPh: 0484-2624141, Kerala
30/==/ERNErnakulam Town (North) (2)  13:35 13:40+2613:40 13:45+265m21411.5349mSRTel: 0484 2395198, Kerala
31/==/TRTRThrippunithura (2)13:55 14:02+2913:56 14:03+301m--1421.2725mSRErnakulam, Kerala
32%==%PVRDPiravom Road  14:14 14:19+3814:15 14:20+411m11440.35912mSRKottayam, Kerala
33%==%ETMEttumanur (1)X  14:34 14:41+4814:35 14:42+491m11460.93528mSRKottayam, Kerala
34%==%KTYMKottayam (3)  14:50 15:00+4614:53 15:03+483m11471.55915mSRTel: 0481 2563535, Kerala
35%==%CGYChanganassery (3)X  15:09 15:21+5215:10 15:22+551m21489.35911mSRPh: 0481- 2420108, Kerala
36%==%TRVLTiruvalla (2)  15:19 15:30+5815:20 15:31+1:011m11497.26827mSRPh: 0469-2601314, Kerala
37%==/CNGRChengannur (3)  15:34 15:39+1:0415:35 15:40+1:051m11506.3686mSRPh: 0479-2452340, Kerala
38/==/MVLKMavelikara (3)X  15:49 15:51+1:0515:50 15:52+1:061m31518.83513mSRMavelikkara Ph: 0479-2302249, Kerala
39/==/KYJKayamkulam Junction (5)  16:00 16:05+1:0216:02 16:10+1:002 5m41526.55511mSRAlappuzha Ph;0479-2442042, Kerala
40/==/KPYKarunagappalli (2)  16:15 16:25+1:0016:16 16:26+1:001m21540.25112mSRKollam Dist, Kerala
41/==/STKTSasthamkotta (2)  16:24 16:35+1:0216:25 16:36+1:021m11547.8340mSRKollam Dist, Kerala
42/==/QLNKollam Junction (6)X  17:05 17:10+4717:10 17:15+475m11567.36216mSRKollam 0474-2746194, Kerala
43/==/PVUParavur (3)X17:20 17:27+4817:21 17:28+481m--1579.77518mSRParavoor, Kerala
44/==/VAKVarkala Sivagiri (3)  17:29 17:37+4917:30 17:38+501m21590.96652mSREdava Kappil Road, Kerala
45/==/KZKKazhakkuttam (3)17:53 18:03+5117:54 18:04+521m--1618.66620mSRKulathoor ► Kazhakootam Road Kazhakootam PO Thiruvananthapuram, Kerala
46/==/TVPThiruvananthapuram Pettah (2)O  18:04 18:14+1518:05 18:15+151m11629.5718mSRTrivandrum Ph: 04712470181, Kerala
47/==/TVCTrivandrum Central (5)•X  18:25 18:35+4218:35 18:40+4310 5m51631.95412mSRThiruvananthapuram 695001, Kerala
48/--/NYYNeyyattinkara  18:54 18:59+4818:55 19:00+491m--1649.17311mSRThiruvananthapuram, Kerala
49/--/PASAParassalaX  19:04 19:09+5319:05 19:10+541m--1660.04245mSRParassala, Kerala
50/--/KZTKulitturai (2)  19:24+4919:25+501m--1669.94729mSRMarthandam, Tamil Nadu
51/--/ERLEraniel (2)  19:44+4519:45+461m--1684.72219mSRKanyakumari, Tamil Nadu
52/--/NCJNagercoil Junction (4)  20:35+13---1703.0-22mSRNagercoil-629002, Tamil Nadu
Scroll to Top
Scroll to Bottom